Hiawatha, KS

12:17 AM CDT 2014 urria ren 21 an (GMT -0500)
w0msc | Change Station
CLOSE
Current Station
Personal Weather Stations
Location: Hiawatha, KS
Elevation: 1089 ft
Nearby Weather Stations

Elev 1089 ft 39.85 °N, 95.54 °W | Updated 7 seconds ago

Oskarbia
Oskarbia
46.7 °F
Feels Like 47 °F
N
0.0
Haizea Aldagarria Haizea from IIM
Gusts 0.0 mph

Gaur
High -- | Low -- °F
--% Chance of Precip.
Yesterday
High -- | Low -- °F
Precip. -- in
7:39 AM 6:34 PM
Waning Crescent, 7% visible
Presioa 30.06 in
Ikusgaitasuna 10.0 Miliak
Clouds Oskarbia
Izozki haizeak 47 °F
Ihintzaren maila 42 °F
Afoinua 82%
Rainfall 0.00 in
Snow Depth Not available.
UV 0 out of 12
Pollen 2.20 out of 12
Air Quality Not available.
Flu Activity No Activity
METAR KFNB 210453Z AUTO 00000KT 10SM CLR 07/04 A3006 RMK AO2 SLP178 T00720039

More Conditions Fewer Conditions

Presioa 30.06 in
Ikusgaitasuna 10.0 Miliak
Clouds Oskarbia
Izozki haizeak 47 °F
Ihintzaren maila 42 °F
Afoinua 82%
Rainfall 0.00 in
Snow Depth Not available.
UV 0 out of 12
Pollen 2.20 out of 12
Air Quality Not available.
Flu Activity No Activity
METAR KFNB 210453Z AUTO 00000KT 10SM CLR 07/04 A3006 RMK AO2 SLP178 T00720039

More Conditions Fewer Conditions

10-Day Weather Forecast

Almanac

Astronomy

Oct. 21, 2014 Rise Set
Actual Time 7:39 AM CDT 6:34 PM CDT
Civil Twilight 7:11 AM CDT 7:01 PM CDT
Nautical Twilight 6:40 AM CDT 7:33 PM CDT
Astronomical Twilight 6:08 AM CDT 8:04 PM CDT
Moon 5:24 AM CDT 5:28 PM CDT
Length Of Visible Light 11h 50m
Length of Day
10h 55m
Tomorrow will be 2m 27s shorter.
Waning Crescent, 7% of the Moon is Illuminated
Gaur
Waning Crescent
Oct 23
New
Oct 30
First Quarter
Nov 6
Full
Nov 14
Last Quarter

Today's Extremes

State Highs State Lows

Community

WunderPhotos

Upload Photos

1,763,612 photos uploaded!

Nearby

Snow Depth

Station Depth Elevation
No new snow has been reported.

Earthquake Activity

City Distance Mag. Time & Date
No recent earthquake activity has been reported nearby.
Minimum magnitude displayed is 2.5.

Coastal Water Temperatures

Lekua Tenperatura
No Stations Reporting

Nearby Weather Stations